createdAt,value
2023-04-17T00:02:04.786Z,3.30
2023-04-17T00:04:32.745Z,3.95
2023-04-17T00:07:03.675Z,3.15
2023-04-17T00:09:31.588Z,3.60
2023-04-17T00:11:58.604Z,3.95
2023-04-17T00:14:25.720Z,3.88
2023-04-17T00:16:52.839Z,3.65
2023-04-17T00:19:20.194Z,3.70
2023-04-17T00:21:47.160Z,4.53
2023-04-17T00:24:15.439Z,3.72
2023-04-17T00:26:42.611Z,3.80
2023-04-17T00:29:09.957Z,3.90
2023-04-17T00:31:37.677Z,3.80
2023-04-17T00:34:04.860Z,4.07
2023-04-17T00:36:32.335Z,4.57
2023-04-17T00:38:59.748Z,4.53
2023-04-17T00:41:27.490Z,4.90
2023-04-17T00:43:55.047Z,4.63
2023-04-17T00:46:22.612Z,4.90
2023-04-17T00:48:49.998Z,4.97
2023-04-17T00:51:17.241Z,4.72
2023-04-17T00:53:45.301Z,4.80
2023-04-17T00:56:13.071Z,5.10
2023-04-17T00:58:40.742Z,5.25
2023-04-17T01:01:08.289Z,5.38
2023-04-17T01:03:35.704Z,5.97
2023-04-17T01:06:04.174Z,4.97
2023-04-17T01:08:49.941Z,4.78
2023-04-17T01:11:18.859Z,4.70
2023-04-17T01:13:50.387Z,4.70
2023-04-17T01:16:19.643Z,4.90
2023-04-17T01:18:50.541Z,5.72
2023-04-17T01:21:18.413Z,4.88
2023-04-17T01:23:52.351Z,4.68
2023-04-17T01:26:23.271Z,11.35
2023-04-17T01:28:52.215Z,10.68
2023-04-17T01:31:19.718Z,4.47
2023-04-17T01:33:47.165Z,4.53
2023-04-17T01:36:14.712Z,9.35
2023-04-17T01:38:42.021Z,20.73
2023-04-17T01:41:13.432Z,12.32
2023-04-17T01:43:46.231Z,5.30
2023-04-17T01:46:13.966Z,44.80
2023-04-17T01:48:41.162Z,7.40
2023-04-17T01:51:10.059Z,11.48
2023-04-17T01:53:40.220Z,6.00
2023-04-17T01:56:08.180Z,6.80
2023-04-17T01:58:35.236Z,14.45
2023-04-17T02:01:02.374Z,7.13
2023-04-17T02:03:29.476Z,13.05
2023-04-17T02:05:56.656Z,6.50
2023-04-17T02:08:24.133Z,7.10
2023-04-17T02:10:51.480Z,4.97
2023-04-17T02:13:18.738Z,4.93
2023-04-17T02:15:46.111Z,5.85
2023-04-17T02:18:15.825Z,6.07
2023-04-17T02:20:42.806Z,6.35
2023-04-17T02:23:10.071Z,6.70
2023-04-17T02:25:37.106Z,6.57
2023-04-17T02:28:05.080Z,7.93
2023-04-17T02:30:34.349Z,6.90
2023-04-17T02:33:02.247Z,6.72
2023-04-17T02:35:31.887Z,6.40
2023-04-17T02:37:59.184Z,6.45
2023-04-17T02:40:27.804Z,6.07
2023-04-17T02:43:01.068Z,5.43
2023-04-17T02:45:30.284Z,5.43
2023-04-17T02:47:58.404Z,5.47
2023-04-17T02:50:25.511Z,5.07
2023-04-17T02:53:09.194Z,5.75
2023-04-17T02:55:36.517Z,5.55
2023-04-17T02:58:03.498Z,5.65
2023-04-17T03:00:30.585Z,5.72
2023-04-17T03:02:57.722Z,5.72
2023-04-17T03:05:24.768Z,6.20
2023-04-17T03:07:54.206Z,5.72
2023-04-17T03:10:21.749Z,5.55
2023-04-17T03:12:51.047Z,6.60
2023-04-17T03:15:18.154Z,5.57
2023-04-17T03:17:45.715Z,5.22
2023-04-17T03:20:12.847Z,5.93
2023-04-17T03:22:41.955Z,11.68
2023-04-17T03:25:10.651Z,6.13
2023-04-17T03:27:48.644Z,13.98
2023-04-17T03:30:17.974Z,7.53
2023-04-17T03:32:48.586Z,9.30
2023-04-17T03:35:15.546Z,6.50
2023-04-17T03:37:43.116Z,11.45
2023-04-17T03:40:13.713Z,17.65
2023-04-17T03:42:44.095Z,7.43
2023-04-17T03:45:11.432Z,6.82
2023-04-17T03:47:38.893Z,7.97
2023-04-17T03:50:07.156Z,7.85
2023-04-17T03:52:39.584Z,7.35
2023-04-17T03:55:07.574Z,7.25
2023-04-17T03:57:34.988Z,7.65
2023-04-17T04:00:03.142Z,7.68
2023-04-17T04:02:46.794Z,7.80
2023-04-17T04:05:18.864Z,7.82
2023-04-17T04:07:46.723Z,8.43
2023-04-17T04:10:20.106Z,8.25
2023-04-17T04:12:48.603Z,8.20
2023-04-17T04:15:16.948Z,8.27
2023-04-17T04:17:47.284Z,8.20
2023-04-17T04:20:14.990Z,7.68
2023-04-17T04:22:45.072Z,8.45
2023-04-17T04:25:13.034Z,7.75
2023-04-17T04:27:50.146Z,8.63
2023-04-17T04:30:26.025Z,7.95
2023-04-17T04:33:01.382Z,8.18
2023-04-17T04:35:30.696Z,8.27
2023-04-17T04:38:03.158Z,7.57
2023-04-17T04:40:38.585Z,7.22
2023-04-17T04:43:07.575Z,8.00
2023-04-17T04:45:43.169Z,8.00
2023-04-17T04:48:11.007Z,8.63
2023-04-17T04:50:38.153Z,7.78
2023-04-17T04:53:07.449Z,7.85
2023-04-17T04:55:43.379Z,8.60
2023-04-17T04:58:11.036Z,8.02
2023-04-17T05:00:39.658Z,10.43
2023-04-17T05:05:42.556Z,10.38
2023-04-17T05:08:14.204Z,10.73
2023-04-17T05:10:46.616Z,9.00
2023-04-17T05:13:16.245Z,8.90
2023-04-17T05:15:44.437Z,8.70
2023-04-17T05:18:16.335Z,8.85
2023-04-17T05:20:45.569Z,9.35
2023-04-17T05:23:12.640Z,8.88
2023-04-17T05:25:46.779Z,7.70
2023-04-17T05:28:16.799Z,7.28
2023-04-17T05:30:45.080Z,6.80
2023-04-17T05:33:18.730Z,7.07
2023-04-17T05:35:50.398Z,6.30
2023-04-17T05:38:20.558Z,6.40
2023-04-17T05:40:48.010Z,6.20
2023-04-17T05:43:16.808Z,6.40
2023-04-17T05:45:43.768Z,5.88
2023-04-17T05:48:11.053Z,5.47
2023-04-17T05:50:39.005Z,5.20
2023-04-17T05:53:07.515Z,6.88
2023-04-17T05:55:39.818Z,6.50
2023-04-17T06:00:44.168Z,5.20
2023-04-17T06:03:18.524Z,4.65
2023-04-17T06:05:47.853Z,5.65
2023-04-17T06:08:16.644Z,4.47
2023-04-17T06:10:47.835Z,5.20
2023-04-17T06:13:15.245Z,4.35
2023-04-17T06:15:45.988Z,4.15
2023-04-17T06:18:16.521Z,4.40
2023-04-17T06:20:45.952Z,3.90
2023-04-17T06:23:13.697Z,4.00
2023-04-17T06:25:41.375Z,3.40
2023-04-17T06:28:09.124Z,3.78
2023-04-17T06:30:38.203Z,3.33
2023-04-17T06:33:06.777Z,3.05
2023-04-17T06:35:37.965Z,3.30
2023-04-17T06:38:31.702Z,2.80
2023-04-17T06:40:59.364Z,3.20
2023-04-17T06:43:26.359Z,3.20
2023-04-17T06:45:54.166Z,3.80
2023-04-17T06:48:21.356Z,3.92
2023-04-17T06:50:49.279Z,3.90
2023-04-17T06:53:16.379Z,3.72
2023-04-17T06:55:43.507Z,2.95
2023-04-17T06:58:11.370Z,2.80
2023-04-17T07:00:38.694Z,2.80
2023-04-17T07:03:06.803Z,2.60
2023-04-17T07:05:33.926Z,3.00
2023-04-17T07:08:01.374Z,2.58
2023-04-17T07:10:28.320Z,2.72
2023-04-17T07:12:55.567Z,3.40
2023-04-17T07:15:22.576Z,3.00
2023-04-17T07:17:49.620Z,5.68
2023-04-17T07:20:16.803Z,2.80
2023-04-17T07:22:43.881Z,3.45
2023-04-17T07:25:11.658Z,2.83
2023-04-17T07:27:39.653Z,6.30
2023-04-17T07:30:08.975Z,3.97
2023-04-17T07:32:36.458Z,3.75
2023-04-17T07:35:04.731Z,6.60
2023-04-17T07:37:31.677Z,3.60
2023-04-17T07:40:00.054Z,4.90
2023-04-17T07:42:27.080Z,9.48
2023-04-17T07:44:54.248Z,12.80
2023-04-17T07:47:21.906Z,3.80
2023-04-17T07:49:49.328Z,6.50
2023-04-17T07:52:18.289Z,5.13
2023-04-17T07:54:47.098Z,5.80
2023-04-17T07:57:15.945Z,4.80
2023-04-17T07:59:43.226Z,5.70
2023-04-17T08:02:11.768Z,4.90
2023-04-17T08:04:40.832Z,4.88
2023-04-17T08:07:10.877Z,6.90
2023-04-17T08:09:40.612Z,4.82
2023-04-17T08:12:09.289Z,8.90
2023-04-17T08:14:36.488Z,7.85
2023-04-17T08:17:04.478Z,3.30
2023-04-17T08:19:32.230Z,3.10
2023-04-17T08:22:05.380Z,3.05
2023-04-17T08:24:32.384Z,3.60
2023-04-17T08:26:59.318Z,5.95
2023-04-17T08:29:28.968Z,3.42
2023-04-17T08:32:12.704Z,2.40
2023-04-17T08:34:41.784Z,2.20
2023-04-17T08:37:08.687Z,1.70
2023-04-17T08:39:35.688Z,3.28
2023-04-17T08:42:08.054Z,2.05
2023-04-17T08:44:36.076Z,1.63
2023-04-17T08:47:04.891Z,2.60
2023-04-17T08:49:35.521Z,2.83
2023-04-17T08:52:04.649Z,1.75
2023-04-17T08:54:33.714Z,1.70
2023-04-17T08:57:05.257Z,1.50
2023-04-17T08:59:33.556Z,1.27
2023-04-17T09:02:07.436Z,1.67
2023-04-17T09:04:43.200Z,1.35
2023-04-17T09:07:15.704Z,1.40
2023-04-17T09:09:51.181Z,1.47
2023-04-17T09:12:19.991Z,1.85
2023-04-17T09:14:47.460Z,2.10
2023-04-17T09:17:17.584Z,2.05
2023-04-17T09:20:04.739Z,1.27
2023-04-17T09:22:32.503Z,1.67
2023-04-17T09:25:00.058Z,1.80
2023-04-17T09:27:28.634Z,1.08
2023-04-17T09:29:57.119Z,1.85
2023-04-17T09:32:24.789Z,1.60
2023-04-17T09:34:53.416Z,2.30
2023-04-17T09:37:23.384Z,1.20
2023-04-17T09:39:59.362Z,1.33
2023-04-17T09:42:29.042Z,1.58
2023-04-17T09:44:58.388Z,1.27
2023-04-17T09:47:25.568Z,1.23
2023-04-17T09:49:53.113Z,2.00
2023-04-17T09:52:23.874Z,1.98
2023-04-17T09:54:53.964Z,1.33
2023-04-17T09:57:21.436Z,2.00
2023-04-17T09:59:49.402Z,1.20
2023-04-17T10:02:19.183Z,1.20
2023-04-17T10:04:47.926Z,1.10
2023-04-17T10:07:16.825Z,1.60
2023-04-17T10:09:47.449Z,1.88
2023-04-17T10:12:18.004Z,2.20
2023-04-17T10:14:51.524Z,1.55
2023-04-17T10:17:31.996Z,1.55
2023-04-17T10:20:20.466Z,1.90
2023-04-17T10:22:54.615Z,1.30
2023-04-17T10:25:23.061Z,1.20
2023-04-17T10:27:52.507Z,1.67
2023-04-17T10:30:23.215Z,2.08
2023-04-17T10:33:22.160Z,1.77
2023-04-17T10:35:49.532Z,1.02
2023-04-17T10:38:17.820Z,2.63
2023-04-17T10:40:45.317Z,1.50
2023-04-17T10:43:20.530Z,1.50
2023-04-17T10:46:03.711Z,1.50
2023-04-17T10:48:46.542Z,1.50
2023-04-17T10:51:29.503Z,1.35
2023-04-17T10:54:03.452Z,2.13
2023-04-17T10:56:42.714Z,1.80
2023-04-17T10:59:14.328Z,2.35
2023-04-17T11:01:52.496Z,1.90
2023-04-17T11:04:21.729Z,2.40
2023-04-17T11:06:49.468Z,2.90
2023-04-17T11:09:16.841Z,2.65
2023-04-17T11:11:45.190Z,2.90
2023-04-17T11:14:17.870Z,5.05
2023-04-17T11:16:47.061Z,2.80
2023-04-17T11:19:23.188Z,2.85
2023-04-17T11:21:55.331Z,2.78
2023-04-17T11:24:34.861Z,2.70
2023-04-17T11:27:02.331Z,2.35
2023-04-17T11:29:29.921Z,2.30
2023-04-17T11:31:58.973Z,2.47
2023-04-17T11:34:27.161Z,2.80
2023-04-17T11:36:59.826Z,2.80
2023-04-17T11:39:33.433Z,3.03
2023-04-17T11:42:03.564Z,3.03
2023-04-17T11:44:30.843Z,3.00
2023-04-17T11:47:01.725Z,2.90
2023-04-17T11:49:30.509Z,2.60
2023-04-17T11:52:00.878Z,3.13
2023-04-17T11:54:39.373Z,3.38
2023-04-17T11:57:13.079Z,3.85
2023-04-17T12:02:09.952Z,6.00
2023-04-17T12:04:38.166Z,5.90
2023-04-17T12:07:07.137Z,6.20
2023-04-17T12:09:35.716Z,6.55
2023-04-17T12:12:08.267Z,7.03
2023-04-17T12:14:36.486Z,6.90
2023-04-17T12:17:06.574Z,7.25
2023-04-17T12:19:34.055Z,7.80
2023-04-17T12:22:01.116Z,7.70
2023-04-17T12:24:28.194Z,8.13
2023-04-17T12:26:55.215Z,8.10
2023-04-17T12:29:32.738Z,8.02
2023-04-17T12:32:11.069Z,9.02
2023-04-17T12:34:38.783Z,10.55
2023-04-17T12:37:05.914Z,9.15
2023-04-17T12:39:33.051Z,8.73
2023-04-17T12:41:59.994Z,9.88
2023-04-17T12:44:28.614Z,9.70
2023-04-17T12:46:56.026Z,9.65
2023-04-17T12:49:24.279Z,8.82
2023-04-17T12:51:51.697Z,9.57
2023-04-17T12:54:19.393Z,10.75
2023-04-17T12:56:46.408Z,10.65
2023-04-17T12:59:13.373Z,9.75
2023-04-17T13:01:40.497Z,9.18
2023-04-17T13:04:07.996Z,10.90
2023-04-17T13:06:35.171Z,11.20
2023-04-17T13:09:02.228Z,10.93
2023-04-17T13:11:29.296Z,12.27
2023-04-17T13:13:56.767Z,11.15
2023-04-17T13:16:24.107Z,11.60
2023-04-17T13:18:51.116Z,11.85
2023-04-17T13:21:18.103Z,11.32
2023-04-17T13:23:45.091Z,12.00
2023-04-17T13:26:12.142Z,10.95
2023-04-17T13:28:40.129Z,11.25
2023-04-17T13:31:07.342Z,12.05
2023-04-17T13:33:34.892Z,11.60
2023-04-17T13:36:01.818Z,11.70
2023-04-17T13:38:30.689Z,13.38
2023-04-17T13:41:00.039Z,15.07
2023-04-17T13:43:27.126Z,12.57
2023-04-17T13:45:55.655Z,13.95
2023-04-17T13:48:22.757Z,11.30
2023-04-17T13:50:49.760Z,12.80
2023-04-17T13:53:16.749Z,11.23
2023-04-17T13:55:43.723Z,11.80
2023-04-17T13:58:11.084Z,11.73
2023-04-17T14:00:38.112Z,12.15
2023-04-17T14:03:05.592Z,11.55
2023-04-17T14:05:32.817Z,10.60
2023-04-17T14:07:59.887Z,11.98
2023-04-17T14:10:27.145Z,12.20
2023-04-17T14:12:54.253Z,12.52
2023-04-17T14:15:21.612Z,10.60
2023-04-17T14:17:48.746Z,10.60
2023-04-17T14:20:17.702Z,10.80
2023-04-17T14:22:45.010Z,9.55
2023-04-17T14:25:13.374Z,19.73
2023-04-17T14:27:42.232Z,8.63
2023-04-17T14:30:09.638Z,8.88
2023-04-17T14:32:39.272Z,9.90
2023-04-17T14:35:07.549Z,9.05
2023-04-17T14:37:34.904Z,10.50
2023-04-17T14:40:01.904Z,8.98
2023-04-17T14:42:28.959Z,9.10
2023-04-17T14:44:55.974Z,8.63
2023-04-17T14:47:24.423Z,9.15
2023-04-17T14:49:52.118Z,8.32
2023-04-17T14:52:19.113Z,7.45
2023-04-17T14:54:46.104Z,9.48
2023-04-17T14:57:13.320Z,7.22
2023-04-17T14:59:40.738Z,7.55
2023-04-17T15:02:07.910Z,8.43
2023-04-17T15:04:35.297Z,7.88
2023-04-17T15:07:05.097Z,8.32
2023-04-17T15:09:32.761Z,19.13
2023-04-17T15:12:01.108Z,9.98
2023-04-17T15:14:30.194Z,11.60
2023-04-17T15:16:58.960Z,11.35
2023-04-17T15:19:26.178Z,15.85
2023-04-17T15:21:53.463Z,11.32
2023-04-17T15:24:20.339Z,14.85
2023-04-17T15:26:47.538Z,10.65
2023-04-17T15:29:14.975Z,18.45
2023-04-17T15:31:42.136Z,12.82
2023-04-17T15:34:09.553Z,10.35
2023-04-17T15:36:36.552Z,11.38
2023-04-17T15:39:04.300Z,9.70
2023-04-17T15:41:32.820Z,10.70
2023-04-17T15:44:01.169Z,9.63
2023-04-17T15:46:31.956Z,10.85
2023-04-17T15:49:08.211Z,9.98
2023-04-17T15:51:38.041Z,10.05
2023-04-17T15:54:06.098Z,9.23
2023-04-17T15:56:34.864Z,12.00
2023-04-17T15:59:03.351Z,10.45
2023-04-17T16:01:30.623Z,9.15
2023-04-17T16:03:57.873Z,8.95
2023-04-17T16:06:26.049Z,9.18
2023-04-17T16:08:53.028Z,8.13
2023-04-17T16:11:20.156Z,9.43
2023-04-17T16:13:47.103Z,9.20
2023-04-17T16:16:14.140Z,8.90
2023-04-17T16:18:42.509Z,9.23
2023-04-17T16:21:12.361Z,8.43
2023-04-17T16:23:40.526Z,8.85
2023-04-17T16:26:08.400Z,10.40
2023-04-17T16:28:35.529Z,8.45
2023-04-17T16:31:02.714Z,8.55
2023-04-17T16:33:29.844Z,8.27
2023-04-17T16:35:57.693Z,8.40
2023-04-17T16:38:24.827Z,9.82
2023-04-17T16:40:54.050Z,9.23
2023-04-17T16:43:22.277Z,9.18
2023-04-17T16:45:50.455Z,8.63
2023-04-17T16:48:18.232Z,9.02
2023-04-17T16:50:45.806Z,8.77
2023-04-17T16:53:13.800Z,9.73
2023-04-17T16:55:42.486Z,9.00
2023-04-17T16:58:10.971Z,22.50
2023-04-17T17:00:39.165Z,9.93
2023-04-17T17:03:06.289Z,9.23
2023-04-17T17:05:33.543Z,8.02
2023-04-17T17:08:00.893Z,9.02
2023-04-17T17:10:28.961Z,9.30
2023-04-17T17:12:56.833Z,8.35
2023-04-17T17:15:24.243Z,9.60
2023-04-17T17:17:51.409Z,7.90
2023-04-17T17:20:20.589Z,8.50
2023-04-17T17:22:47.655Z,9.18
2023-04-17T17:25:14.718Z,9.48
2023-04-17T17:27:43.089Z,9.65
2023-04-17T17:30:10.973Z,9.00
2023-04-17T17:32:38.874Z,7.78
2023-04-17T17:35:06.320Z,9.23
2023-04-17T17:37:33.295Z,8.70
2023-04-17T17:40:00.941Z,8.70
2023-04-17T17:42:31.116Z,9.57
2023-04-17T17:44:59.375Z,10.18
2023-04-17T17:47:26.517Z,9.63
2023-04-17T17:49:54.176Z,9.07
2023-04-17T17:52:21.724Z,9.60
2023-04-17T17:54:49.439Z,8.55
2023-04-17T17:57:16.406Z,7.97
2023-04-17T17:59:43.399Z,8.73
2023-04-17T18:02:11.459Z,10.02
2023-04-17T18:04:38.847Z,10.65
2023-04-17T18:07:05.880Z,8.32
2023-04-17T18:09:33.150Z,13.07
2023-04-17T18:12:02.203Z,11.00
2023-04-17T18:14:31.538Z,8.73
2023-04-17T18:16:58.534Z,13.40
2023-04-17T18:19:25.985Z,10.10
2023-04-17T18:21:52.931Z,14.88
2023-04-17T18:24:19.873Z,12.73
2023-04-17T18:26:47.932Z,9.70
2023-04-17T18:29:16.675Z,9.55
2023-04-17T18:31:43.742Z,9.80
2023-04-17T18:34:10.845Z,9.05
2023-04-17T18:36:39.038Z,9.90
2023-04-17T18:39:06.117Z,9.07
2023-04-17T18:41:34.941Z,10.52
2023-04-17T18:44:03.299Z,9.65
2023-04-17T18:46:31.025Z,11.82
2023-04-17T18:48:58.640Z,10.73
2023-04-17T18:51:26.612Z,10.20
2023-04-17T18:53:55.095Z,9.80
2023-04-17T18:56:24.235Z,11.70
2023-04-17T18:58:51.551Z,10.80
2023-04-17T19:01:18.622Z,13.55
2023-04-17T19:03:46.404Z,16.40
2023-04-17T19:06:13.452Z,17.95
2023-04-17T19:08:42.328Z,15.50
2023-04-17T19:11:09.314Z,13.18
2023-04-17T19:13:36.438Z,10.52
2023-04-17T19:16:03.397Z,10.10
2023-04-17T19:18:31.147Z,19.15
2023-04-17T19:20:58.054Z,11.85
2023-04-17T19:23:26.547Z,10.45
2023-04-17T19:25:56.791Z,10.25
2023-04-17T19:28:24.701Z,11.35
2023-04-17T19:30:53.398Z,12.15
2023-04-17T19:33:20.889Z,10.40
2023-04-17T19:35:47.885Z,10.90
2023-04-17T19:38:16.931Z,11.55
2023-04-17T19:41:07.410Z,10.48
2023-04-17T19:43:34.394Z,12.32
2023-04-17T19:46:01.792Z,11.07
2023-04-17T19:48:29.073Z,10.82
2023-04-17T19:50:56.106Z,12.10
2023-04-17T19:53:23.310Z,11.95
2023-04-17T19:55:50.349Z,10.70
2023-04-17T19:58:17.251Z,12.25
2023-04-17T20:00:44.556Z,11.02
2023-04-17T20:03:11.651Z,11.18
2023-04-17T20:05:38.754Z,13.32
2023-04-17T20:08:09.400Z,13.23
2023-04-17T20:10:36.992Z,9.98
2023-04-17T20:13:03.961Z,10.27
2023-04-17T20:15:32.329Z,10.60
2023-04-17T20:18:15.121Z,11.00
2023-04-17T20:20:42.387Z,9.65
2023-04-17T20:23:10.985Z,9.60
2023-04-17T20:25:38.888Z,10.35
2023-04-17T20:28:07.455Z,10.85
2023-04-17T20:30:38.048Z,9.95
2023-04-17T20:33:05.500Z,10.35
2023-04-17T20:35:32.529Z,10.90
2023-04-17T20:37:59.788Z,10.70
2023-04-17T20:40:27.357Z,9.40
2023-04-17T20:42:55.655Z,10.48
2023-04-17T20:45:22.749Z,10.32
2023-04-17T20:47:55.942Z,9.93
2023-04-17T20:50:26.623Z,9.68
2023-04-17T20:52:53.554Z,9.90
2023-04-17T20:55:22.072Z,9.80
2023-04-17T20:57:49.925Z,10.07
2023-04-17T21:00:17.987Z,9.88
2023-04-17T21:02:46.100Z,9.98
2023-04-17T21:05:15.508Z,10.00
2023-04-17T21:07:42.949Z,9.95
2023-04-17T21:10:12.081Z,10.40
2023-04-17T21:12:40.058Z,9.68
2023-04-17T21:15:08.230Z,9.82
2023-04-17T21:17:36.235Z,9.52
2023-04-17T21:20:07.018Z,9.98
2023-04-17T21:22:34.149Z,10.07
2023-04-17T21:25:03.345Z,10.25
2023-04-17T21:27:31.127Z,9.50
2023-04-17T21:29:59.977Z,10.30
2023-04-17T21:32:27.360Z,9.55
2023-04-17T21:34:56.039Z,10.25
2023-04-17T21:37:23.388Z,10.80
2023-04-17T21:39:51.995Z,10.45
2023-04-17T21:42:20.252Z,10.48
2023-04-17T21:44:49.845Z,10.45
2023-04-17T21:47:17.070Z,9.95
2023-04-17T21:49:49.214Z,10.57
2023-04-17T21:52:17.158Z,10.90
2023-04-17T21:54:44.363Z,9.80
2023-04-17T21:57:14.889Z,9.90
2023-04-17T21:59:42.897Z,9.75
2023-04-17T22:02:10.013Z,9.70
2023-04-17T22:04:37.104Z,9.27
2023-04-17T22:07:05.228Z,9.48
2023-04-17T22:09:34.492Z,9.23
2023-04-17T22:12:15.154Z,9.82
2023-04-17T22:14:45.000Z,9.85
2023-04-17T22:17:13.369Z,9.10
2023-04-17T22:19:42.993Z,9.02
2023-04-17T22:22:13.014Z,9.18
2023-04-17T22:24:41.777Z,9.00
2023-04-17T22:27:09.102Z,9.20
2023-04-17T22:29:36.932Z,8.88
2023-04-17T22:32:04.020Z,8.98
2023-04-17T22:34:31.754Z,8.93
2023-04-17T22:36:58.744Z,9.27
2023-04-17T22:39:29.276Z,8.23
2023-04-17T22:41:56.866Z,8.32
2023-04-17T22:44:24.148Z,8.48
2023-04-17T22:46:51.127Z,8.65
2023-04-17T22:49:20.020Z,8.82
2023-04-17T22:51:49.380Z,8.00
2023-04-17T22:54:22.880Z,8.75
2023-04-17T22:56:50.276Z,8.68
2023-04-17T22:59:17.712Z,8.18
2023-04-17T23:01:46.301Z,8.38
2023-04-17T23:04:15.072Z,8.57
2023-04-17T23:06:44.764Z,9.00
2023-04-17T23:09:12.530Z,8.73
2023-04-17T23:11:41.343Z,8.77
2023-04-17T23:14:09.470Z,8.60
2023-04-17T23:16:36.929Z,8.77
2023-04-17T23:19:06.438Z,8.07
2023-04-17T23:21:33.827Z,8.73
2023-04-17T23:24:03.488Z,8.57
2023-04-17T23:26:30.495Z,8.57
2023-04-17T23:28:58.718Z,7.53
2023-04-17T23:31:27.060Z,7.13
2023-04-17T23:33:58.319Z,8.02
2023-04-17T23:36:27.384Z,8.85
2023-04-17T23:38:55.991Z,7.97
2023-04-17T23:41:25.933Z,8.15
2023-04-17T23:43:54.216Z,8.48
2023-04-17T23:46:21.927Z,7.80
2023-04-17T23:48:51.025Z,8.10
2023-04-17T23:51:18.460Z,7.13
2023-04-17T23:53:45.979Z,7.00
2023-04-17T23:56:14.367Z,7.20
2023-04-17T23:58:43.304Z,8.05
